Sunday, June 17, 2018, 10:11 PM EDT
Back to Local

KHFD, Hartford-brainard Airport

Location: Hartford, CT, United States Lat: 41.733
Local Time: 10:11 PM EDT ( 2:11 GMT) Lon: -72.65
Time Zone: US/Eastern Elev: 19 ft

Show me the last for .
Show Decoded

2018-06-17 21:53 METAR KHFD 180153Z 18006KT 10SM CLR 23/14 A3005 RMK AO2 SLP174 T02330139 $ =
2018-06-17 20:53 METAR KHFD 180053Z 17006KT 10SM CLR 24/14 A3004 RMK AO2 SLP171 T02440144 $ =
2018-06-17 19:53 METAR KHFD 172353Z 17007KT 10SM CLR 26/14 A3004 RMK AO2 SLP172 T02610139 10322
                 20261 51004 $ =
2018-06-17 18:53 METAR KHFD 172253Z 18008KT 10SM CLR 28/13 A3004 RMK AO2 SLP171 T02830133 $ =
2018-06-17 17:53 METAR KHFD 172153Z 20007KT 10SM CLR 30/13 A3003 RMK AO2 SLP170 T03000128 $ =
2018-06-17 16:53 METAR KHFD 172053Z 17008KT 10SM CLR 32/12 A3003 RMK AO2 SLP168 T03170122 55003 $
                 =
2018-06-17 15:53 METAR KHFD 171953Z VRB05KT 10SM CLR 32/12 A3003 RMK AO2 SLP168 T03170117 $ =
2018-06-17 14:53 METAR KHFD 171853Z 13006KT 10SM CLR 31/12 A3003 RMK AO2 SLP168 T03110117 =
2018-06-17 13:53 METAR KHFD 171753Z 11003KT 10SM CLR 30/12 A3004 RMK AO2 SLP171 T03000117 10306
                 20189 56018 =
2018-06-17 12:53 METAR KHFD 171653Z 11005KT 10SM CLR 29/13 A3005 RMK AO2 SLP176 T02940128 =
2018-06-17 11:53 METAR KHFD 171553Z 08005KT 10SM CLR 28/13 A3007 RMK AO2 SLP183 T02830133 =
2018-06-17 10:53 METAR KHFD 171453Z 00000KT 10SM CLR 27/14 A3009 RMK AO2 SLP189 T02670139 51006 =
2018-06-17 09:53 METAR KHFD 171353Z 02004KT 10SM CLR 24/14 A3009 RMK AO2 SLP188 T02390144 =
2018-06-17 08:53 METAR KHFD 171253Z 00000KT 10SM CLR 22/14 A3008 RMK AO2 SLP187 T02220139 =
2018-06-17 07:53 METAR KHFD 171153Z 00000KT 10SM CLR 19/14 A3007 RMK AO2 SLP183 T01940139 10194
                 20133 51013 =
2018-06-17 06:53 METAR KHFD 171053Z 00000KT 10SM CLR 17/13 A3007 RMK AO2 SLP182 T01670133 =
2018-06-17 05:53 METAR KHFD 170953Z 00000KT 10SM CLR 14/13 A3005 RMK AO2 SLP175 T01440133 =
2018-06-17 04:53 METAR KHFD 170853Z AUTO 15003KT 10SM CLR 15/13 A3004 RMK AO2 SLP171 T01500133
                 53004 =
2018-06-17 03:53 METAR KHFD 170753Z AUTO 00000KT 10SM CLR 16/13 A3003 RMK AO2 SLP169 T01610128 =
2018-06-17 02:53 METAR KHFD 170653Z AUTO 00000KT 10SM CLR 17/13 A3002 RMK AO2 SLP166 T01670128 =
2018-06-17 01:53 METAR KHFD 170553Z AUTO 00000KT 10SM CLR 17/13 A3002 RMK AO2 SLP166 T01720128
                 10272 20172 51003 =
2018-06-17 00:53 METAR KHFD 170453Z AUTO 18004KT 10SM CLR 18/13 A3001 RMK AO2 SLP163 T01780133
                 403000111 =
2018-06-16 23:53 METAR KHFD 170353Z 16004KT 10SM CLR 18/14 A3003 RMK AO2 SLP168 T01830139 =
2018-06-16 22:53 METAR KHFD 170253Z 17004KT 10SM CLR 19/14 A3001 RMK AO2 SLP163 T01890139 53019 =

Support USWX by starting your Amazon purchase here.